createdAt,value
2018-02-02T00:00:40.131Z,9.40
2018-02-02T00:03:06.381Z,6.90
2018-02-02T00:05:33.379Z,6.47
2018-02-02T00:07:59.654Z,5.33
2018-02-02T00:10:25.944Z,6.07
2018-02-02T00:12:52.988Z,6.27
2018-02-02T00:15:19.266Z,10.87
2018-02-02T00:17:45.650Z,8.77
2018-02-02T00:20:11.925Z,6.50
2018-02-02T00:22:38.198Z,8.20
2018-02-02T00:25:04.485Z,7.13
2018-02-02T00:27:30.857Z,6.90
2018-02-02T00:29:57.859Z,11.73
2018-02-02T00:32:24.147Z,8.77
2018-02-02T00:34:51.102Z,11.90
2018-02-02T00:37:17.406Z,7.43
2018-02-02T00:39:43.674Z,7.67
2018-02-02T00:42:10.676Z,12.73
2018-02-02T00:44:36.950Z,7.87
2018-02-02T00:47:03.222Z,10.37
2018-02-02T00:49:29.487Z,11.00
2018-02-02T00:52:00.711Z,7.67
2018-02-02T00:54:27.043Z,8.83
2018-02-02T00:56:53.315Z,8.17
2018-02-02T00:59:20.351Z,9.57
2018-02-02T01:01:47.358Z,16.83
2018-02-02T01:04:13.627Z,12.67
2018-02-02T01:06:39.924Z,15.10
2018-02-02T01:09:06.327Z,13.43
2018-02-02T01:11:32.587Z,16.70
2018-02-02T01:13:58.861Z,12.10
2018-02-02T01:16:25.138Z,21.00
2018-02-02T01:18:56.905Z,11.17
2018-02-02T01:21:25.607Z,15.37
2018-02-02T01:23:53.765Z,10.53
2018-02-02T01:26:23.124Z,14.03
2018-02-02T01:28:50.489Z,9.33
2018-02-02T01:31:16.762Z,10.77
2018-02-02T01:33:43.028Z,9.70
2018-02-02T01:36:09.350Z,9.80
2018-02-02T01:38:35.603Z,13.87
2018-02-02T01:41:01.858Z,9.50
2018-02-02T01:43:28.174Z,15.47
2018-02-02T01:45:54.452Z,13.40
2018-02-02T01:48:20.802Z,11.27
2018-02-02T01:50:48.862Z,14.03
2018-02-02T01:53:15.122Z,14.73
2018-02-02T01:55:41.430Z,23.50
2018-02-02T01:58:07.734Z,19.97
2018-02-02T02:00:34.434Z,17.10
2018-02-02T02:03:00.754Z,12.90
2018-02-02T02:05:27.063Z,17.07
2018-02-02T02:07:53.365Z,20.37
2018-02-02T02:10:20.398Z,19.93
2018-02-02T02:12:47.426Z,23.97
2018-02-02T02:15:14.438Z,39.30
2018-02-02T02:17:40.698Z,28.97
2018-02-02T02:20:06.977Z,61.30
2018-02-02T02:22:33.231Z,28.60
2018-02-02T02:24:59.523Z,22.07
2018-02-02T02:27:26.550Z,19.00
2018-02-02T02:29:53.554Z,18.43
2018-02-02T02:32:19.839Z,24.80
2018-02-02T02:34:46.102Z,25.63
2018-02-02T02:37:13.153Z,18.50
2018-02-02T02:39:40.167Z,23.57
2018-02-02T02:42:06.418Z,17.47
2018-02-02T02:44:32.758Z,20.17
2018-02-02T02:46:59.018Z,16.80
2018-02-02T02:49:26.046Z,19.20
2018-02-02T02:51:53.042Z,21.10
2018-02-02T02:54:19.325Z,18.70
2018-02-02T02:56:45.599Z,16.17
2018-02-02T02:59:11.858Z,14.67
2018-02-02T03:01:38.151Z,18.73
2018-02-02T03:04:05.172Z,16.30
2018-02-02T03:06:32.174Z,16.40
2018-02-02T03:08:58.481Z,16.77
2018-02-02T03:11:24.738Z,16.53
2018-02-02T03:13:51.757Z,17.10
2018-02-02T03:16:18.051Z,15.70
2018-02-02T03:18:44.308Z,17.37
2018-02-02T03:21:11.335Z,17.40
2018-02-02T03:23:38.326Z,16.93
2018-02-02T03:26:04.607Z,18.83
2018-02-02T03:28:30.854Z,17.90
2018-02-02T03:30:57.128Z,19.43
2018-02-02T03:33:23.422Z,17.87
2018-02-02T03:35:50.414Z,18.17
2018-02-02T03:38:16.718Z,20.43
2018-02-02T03:40:42.980Z,17.17
2018-02-02T03:43:09.982Z,17.57
2018-02-02T03:45:36.281Z,20.77
2018-02-02T03:48:02.542Z,24.17
2018-02-02T03:50:29.598Z,20.73
2018-02-02T03:52:55.872Z,15.53
2018-02-02T03:55:22.135Z,18.37
2018-02-02T03:57:48.409Z,15.07
2018-02-02T04:00:14.677Z,14.30
2018-02-02T04:02:40.951Z,17.10
2018-02-02T04:05:07.981Z,16.73
2018-02-02T04:07:34.978Z,14.10
2018-02-02T04:10:01.276Z,14.13
2018-02-02T04:12:27.547Z,16.93
2018-02-02T04:14:54.572Z,20.37
2018-02-02T04:17:21.578Z,14.90
2018-02-02T04:19:47.870Z,16.13
2018-02-02T04:22:14.165Z,16.23
2018-02-02T04:24:40.426Z,9.50
2018-02-02T04:27:06.714Z,16.17
2018-02-02T04:29:33.726Z,13.13
2018-02-02T04:31:59.986Z,14.67
2018-02-02T04:34:26.313Z,15.23
2018-02-02T04:36:52.628Z,19.03
2018-02-02T04:39:21.404Z,10.23
2018-02-02T04:41:47.695Z,16.10
2018-02-02T04:44:13.962Z,12.00
2018-02-02T04:46:40.996Z,14.10
2018-02-02T04:49:07.308Z,15.53
2018-02-02T04:51:34.309Z,12.17
2018-02-02T04:54:00.579Z,10.10
2018-02-02T04:56:26.854Z,13.60
2018-02-02T04:58:53.862Z,16.07
2018-02-02T05:01:20.135Z,12.80
2018-02-02T05:03:46.472Z,16.60
2018-02-02T05:06:12.733Z,11.70
2018-02-02T05:08:39.758Z,13.10
2018-02-02T05:11:06.021Z,14.23
2018-02-02T05:13:32.270Z,12.77
2018-02-02T05:15:58.543Z,10.83
2018-02-02T05:18:24.844Z,12.43
2018-02-02T05:20:51.153Z,14.43
2018-02-02T05:23:18.154Z,13.67
2018-02-02T05:25:44.437Z,13.43
2018-02-02T05:28:10.712Z,12.63
2018-02-02T05:30:37.754Z,20.43
2018-02-02T05:33:04.783Z,14.53
2018-02-02T05:35:31.774Z,14.73
2018-02-02T05:37:58.031Z,12.50
2018-02-02T05:40:25.078Z,17.40
2018-02-02T05:42:51.341Z,17.23
2018-02-02T05:45:17.630Z,13.30
2018-02-02T05:47:43.897Z,18.17
2018-02-02T05:50:10.894Z,16.47
2018-02-02T05:52:37.183Z,18.33
2018-02-02T05:55:03.500Z,14.27
2018-02-02T05:57:29.774Z,14.63
2018-02-02T05:59:56.774Z,11.13
2018-02-02T06:02:23.044Z,18.30
2018-02-02T06:04:49.386Z,19.63
2018-02-02T06:07:15.646Z,16.47
2018-02-02T06:09:42.674Z,14.40
2018-02-02T06:12:08.922Z,13.17
2018-02-02T06:14:35.167Z,11.77
2018-02-02T06:17:01.448Z,14.77
2018-02-02T06:19:35.786Z,10.63
2018-02-02T06:22:02.098Z,20.60
2018-02-02T06:24:28.384Z,15.50
2018-02-02T06:26:54.641Z,10.37
2018-02-02T06:29:20.914Z,27.57
2018-02-02T06:31:47.194Z,21.40
2018-02-02T06:34:13.490Z,16.23
2018-02-02T06:36:39.795Z,19.87
2018-02-02T06:39:06.053Z,16.50
2018-02-02T06:41:33.102Z,13.10
2018-02-02T06:43:59.366Z,15.43
2018-02-02T06:46:25.682Z,20.27
2018-02-02T06:48:51.955Z,14.60
2018-02-02T06:51:18.293Z,23.13
2018-02-02T06:53:44.602Z,11.67
2018-02-02T06:56:10.867Z,13.87
2018-02-02T06:58:37.204Z,14.03
2018-02-02T07:01:03.479Z,11.17
2018-02-02T07:03:29.752Z,13.87
2018-02-02T07:05:56.062Z,15.40
2018-02-02T07:08:22.346Z,16.37
2018-02-02T07:10:49.401Z,17.30
2018-02-02T07:13:15.655Z,28.53
2018-02-02T07:15:41.957Z,20.73
2018-02-02T07:18:08.287Z,17.90
2018-02-02T07:20:34.551Z,18.80
2018-02-02T07:23:01.679Z,19.17
2018-02-02T07:25:28.708Z,16.60
2018-02-02T07:27:55.965Z,14.40
2018-02-02T07:30:22.259Z,11.53
2018-02-02T07:32:49.302Z,13.03
2018-02-02T07:35:16.323Z,13.83
2018-02-02T07:37:42.593Z,12.37
2018-02-02T07:40:08.899Z,15.73
2018-02-02T07:42:35.939Z,24.37
2018-02-02T07:45:02.223Z,20.43
2018-02-02T07:47:28.510Z,21.70
2018-02-02T07:49:54.801Z,14.23
2018-02-02T07:52:21.074Z,16.03
2018-02-02T07:54:47.354Z,15.10
2018-02-02T07:57:13.646Z,20.57
2018-02-02T07:59:39.930Z,17.60
2018-02-02T08:02:06.220Z,15.80
2018-02-02T08:04:33.218Z,19.77
2018-02-02T08:06:59.518Z,12.17
2018-02-02T08:09:25.776Z,10.03
2018-02-02T08:11:53.231Z,16.97
2018-02-02T08:14:20.069Z,9.67
2018-02-02T08:16:47.090Z,19.70
2018-02-02T08:19:14.530Z,17.17
2018-02-02T08:21:41.567Z,24.90
2018-02-02T08:24:07.973Z,15.53
2018-02-02T08:26:34.991Z,13.40
2018-02-02T08:29:01.267Z,13.93
2018-02-02T08:31:27.572Z,15.80
2018-02-02T08:33:53.830Z,15.50
2018-02-02T08:36:20.145Z,13.17
2018-02-02T08:38:46.438Z,21.73
2018-02-02T08:41:13.138Z,21.33
2018-02-02T08:43:40.141Z,16.60
2018-02-02T08:46:06.490Z,11.53
2018-02-02T08:48:32.846Z,11.60
2018-02-02T08:50:59.135Z,18.93
2018-02-02T08:53:25.410Z,15.83
2018-02-02T08:55:52.493Z,12.20
2018-02-02T08:58:24.093Z,18.60
2018-02-02T09:01:02.323Z,13.60
2018-02-02T09:03:32.523Z,11.43
2018-02-02T09:06:05.549Z,11.33
2018-02-02T09:08:32.562Z,12.77
2018-02-02T09:10:58.843Z,16.80
2018-02-02T09:13:25.314Z,9.80
2018-02-02T09:15:52.331Z,16.70
2018-02-02T09:18:19.310Z,15.07
2018-02-02T09:20:46.257Z,14.70
2018-02-02T09:23:12.693Z,13.67
2018-02-02T09:25:39.864Z,13.57
2018-02-02T09:28:08.107Z,14.63
2018-02-02T09:30:36.407Z,13.20
2018-02-02T09:33:03.030Z,14.90
2018-02-02T09:35:29.669Z,11.13
2018-02-02T09:37:57.195Z,7.97
2018-02-02T09:40:24.172Z,8.60
2018-02-02T09:42:51.264Z,11.30
2018-02-02T09:45:17.659Z,7.50
2018-02-02T09:47:45.395Z,11.30
2018-02-02T09:50:12.235Z,14.90
2018-02-02T09:52:39.785Z,13.60
2018-02-02T09:55:07.972Z,13.57
2018-02-02T09:57:35.432Z,12.93
2018-02-02T10:00:02.187Z,8.40
2018-02-02T10:02:28.904Z,8.90
2018-02-02T10:04:55.262Z,8.60
2018-02-02T10:07:22.862Z,9.53
2018-02-02T10:09:49.243Z,8.43
2018-02-02T10:12:16.911Z,8.47
2018-02-02T10:14:43.926Z,8.10
2018-02-02T10:17:10.671Z,6.90
2018-02-02T10:19:37.882Z,5.00
2018-02-02T10:22:04.871Z,5.70
2018-02-02T10:24:31.232Z,6.27
2018-02-02T10:26:58.210Z,6.30
2018-02-02T10:29:25.223Z,6.30
2018-02-02T10:31:51.638Z,4.37
2018-02-02T10:34:18.694Z,6.20
2018-02-02T10:36:46.410Z,5.50
2018-02-02T10:39:13.170Z,3.83
2018-02-02T10:41:39.537Z,2.93
2018-02-02T10:44:06.523Z,3.67
2018-02-02T10:46:33.510Z,4.07
2018-02-02T10:49:01.939Z,2.50
2018-02-02T10:51:28.891Z,2.27
2018-02-02T10:53:55.194Z,2.83
2018-02-02T10:56:22.215Z,4.00
2018-02-02T10:58:49.241Z,2.50
2018-02-02T11:01:21.628Z,3.07
2018-02-02T11:03:53.890Z,3.17
2018-02-02T11:06:20.153Z,2.97
2018-02-02T11:08:46.447Z,2.67
2018-02-02T11:11:12.699Z,2.70
2018-02-02T11:13:39.008Z,6.10
2018-02-02T11:16:05.286Z,3.83
2018-02-02T11:18:31.554Z,4.47
2018-02-02T11:20:58.610Z,11.80
2018-02-02T11:23:24.883Z,5.10
2018-02-02T11:25:51.188Z,3.30
2018-02-02T11:28:17.454Z,3.43
2018-02-02T11:30:43.722Z,3.23
2018-02-02T11:33:10.032Z,4.40
2018-02-02T11:35:36.299Z,3.03
2018-02-02T11:38:02.683Z,5.00
2018-02-02T11:40:34.044Z,6.33
2018-02-02T11:43:00.418Z,6.37
2018-02-02T11:45:27.715Z,3.37
2018-02-02T11:47:54.019Z,4.97
2018-02-02T11:50:22.055Z,6.77
2018-02-02T11:52:48.597Z,4.30
2018-02-02T11:55:16.359Z,3.70
2018-02-02T11:57:43.226Z,5.10
2018-02-02T12:00:10.964Z,7.50
2018-02-02T12:02:37.817Z,5.90
2018-02-02T12:05:04.878Z,5.77
2018-02-02T12:07:31.894Z,6.30
2018-02-02T12:09:59.440Z,6.40
2018-02-02T12:12:26.501Z,9.03
2018-02-02T12:14:53.250Z,6.20
2018-02-02T12:17:20.154Z,7.43
2018-02-02T12:19:46.821Z,10.80
2018-02-02T12:22:19.615Z,8.20
2018-02-02T12:24:49.281Z,7.57
2018-02-02T12:27:21.979Z,9.13
2018-02-02T12:30:10.619Z,11.50
2018-02-02T12:32:43.780Z,11.03
2018-02-02T12:38:14.333Z,9.87
2018-02-02T12:40:41.152Z,8.67
2018-02-02T12:43:08.659Z,15.40
2018-02-02T12:45:34.922Z,10.60
2018-02-02T12:48:01.259Z,8.70
2018-02-02T12:50:34.551Z,11.33
2018-02-02T12:53:00.838Z,10.73
2018-02-02T12:55:27.610Z,8.17
2018-02-02T12:57:54.259Z,12.33
2018-02-02T13:00:21.506Z,13.53
2018-02-02T13:02:48.854Z,10.33
2018-02-02T13:05:16.468Z,12.37
2018-02-02T13:07:43.370Z,10.10
2018-02-02T13:10:09.630Z,10.63
2018-02-02T13:12:36.540Z,6.90
2018-02-02T13:15:02.904Z,7.43
2018-02-02T13:17:35.447Z,8.67
2018-02-02T13:20:02.111Z,8.80
2018-02-02T13:22:28.369Z,12.07
2018-02-02T13:24:55.382Z,7.90
2018-02-02T13:27:21.673Z,13.33
2018-02-02T13:29:47.966Z,8.80
2018-02-02T13:32:14.270Z,9.77
2018-02-02T13:34:40.541Z,7.10
2018-02-02T13:37:06.862Z,7.30
2018-02-02T13:39:33.177Z,6.97
2018-02-02T13:41:59.451Z,7.13
2018-02-02T13:44:25.783Z,11.33
2018-02-02T13:46:52.044Z,10.03
2018-02-02T13:49:19.071Z,8.90
2018-02-02T13:51:45.354Z,12.00
2018-02-02T13:54:11.638Z,7.70
2018-02-02T13:56:37.922Z,8.83
2018-02-02T13:59:05.009Z,6.97
2018-02-02T14:01:31.288Z,7.87
2018-02-02T14:03:57.588Z,6.07
2018-02-02T14:06:24.601Z,7.30
2018-02-02T14:08:50.882Z,9.40
2018-02-02T14:11:17.150Z,5.67
2018-02-02T14:13:44.159Z,4.80
2018-02-02T14:16:10.450Z,4.70
2018-02-02T14:18:36.752Z,5.30
2018-02-02T14:21:03.086Z,5.93
2018-02-02T14:23:29.352Z,5.70
2018-02-02T14:25:55.639Z,6.07
2018-02-02T14:28:21.918Z,4.07
2018-02-02T14:30:48.179Z,3.90
2018-02-02T14:33:14.502Z,5.23
2018-02-02T14:35:41.523Z,5.03
2018-02-02T14:38:08.522Z,7.30
2018-02-02T14:40:34.819Z,4.77
2018-02-02T14:43:01.125Z,6.57
2018-02-02T14:45:27.427Z,6.27
2018-02-02T14:47:53.691Z,5.53
2018-02-02T14:50:21.281Z,5.83
2018-02-02T14:52:47.899Z,5.57
2018-02-02T14:55:15.515Z,4.63
2018-02-02T14:57:41.857Z,6.77
2018-02-02T15:00:08.897Z,2.70
2018-02-02T15:02:35.907Z,3.00
2018-02-02T15:05:02.219Z,3.00
2018-02-02T15:07:28.476Z,1.80
2018-02-02T15:09:54.839Z,2.13
2018-02-02T15:12:21.077Z,2.23
2018-02-02T15:14:47.338Z,4.63
2018-02-02T15:17:13.667Z,2.37
2018-02-02T15:19:39.927Z,3.80
2018-02-02T15:22:07.524Z,3.10
2018-02-02T15:24:33.818Z,2.60
2018-02-02T15:27:00.114Z,2.60
2018-02-02T15:29:27.151Z,3.07
2018-02-02T15:31:54.162Z,4.73
2018-02-02T15:34:20.467Z,3.80
2018-02-02T15:36:46.731Z,1.70
2018-02-02T15:39:13.114Z,2.23
2018-02-02T15:41:39.426Z,4.73
2018-02-02T15:44:05.683Z,1.90
2018-02-02T15:46:32.031Z,3.80
2018-02-02T15:48:58.294Z,8.77
2018-02-02T15:51:24.594Z,2.80
2018-02-02T15:53:51.702Z,1.70
2018-02-02T15:56:17.967Z,2.30
2018-02-02T15:58:44.250Z,2.90
2018-02-02T16:01:10.532Z,2.07
2018-02-02T16:03:36.823Z,2.77
2018-02-02T16:06:03.132Z,2.03
2018-02-02T16:08:29.385Z,5.20
2018-02-02T16:10:55.679Z,2.73
2018-02-02T16:13:21.967Z,2.50
2018-02-02T16:15:48.226Z,3.07
2018-02-02T16:18:14.517Z,2.40
2018-02-02T16:20:40.792Z,2.30
2018-02-02T16:23:07.073Z,2.30
2018-02-02T16:25:33.350Z,3.40
2018-02-02T16:27:59.638Z,2.60
2018-02-02T16:30:26.676Z,4.37
2018-02-02T16:32:53.718Z,1.53
2018-02-02T16:35:20.002Z,2.03
2018-02-02T16:37:46.314Z,6.30
2018-02-02T16:40:12.634Z,4.13
2018-02-02T16:42:38.906Z,2.83
2018-02-02T16:45:05.247Z,1.97
2018-02-02T16:47:31.626Z,2.03
2018-02-02T16:49:58.221Z,2.37
2018-02-02T16:52:24.775Z,5.07
2018-02-02T16:54:51.086Z,1.67
2018-02-02T16:57:17.603Z,4.63
2018-02-02T16:59:43.987Z,2.20
2018-02-02T17:02:10.305Z,3.03
2018-02-02T17:04:36.621Z,3.87
2018-02-02T17:07:02.940Z,7.17
2018-02-02T17:09:29.263Z,4.60
2018-02-02T17:11:56.319Z,7.13
2018-02-02T17:14:22.627Z,2.73
2018-02-02T17:16:48.938Z,6.40
2018-02-02T17:19:15.228Z,2.27
2018-02-02T17:21:41.538Z,2.90
2018-02-02T17:24:07.848Z,3.40
2018-02-02T17:26:34.135Z,3.67
2018-02-02T17:29:00.437Z,7.50
2018-02-02T17:31:26.778Z,3.67
2018-02-02T17:33:53.098Z,3.13
2018-02-02T17:36:19.387Z,5.80
2018-02-02T17:38:45.662Z,4.47
2018-02-02T17:41:11.966Z,5.60
2018-02-02T17:43:38.243Z,3.83
2018-02-02T17:46:04.546Z,3.13
2018-02-02T17:48:31.566Z,3.93
2018-02-02T17:50:57.830Z,7.03
2018-02-02T17:53:24.175Z,7.63
2018-02-02T17:55:51.180Z,4.07
2018-02-02T17:58:17.504Z,3.87
2018-02-02T18:00:47.713Z,8.67
2018-02-02T18:03:14.019Z,44.00
2018-02-02T18:05:40.386Z,21.67
2018-02-02T18:08:07.719Z,11.10
2018-02-02T18:10:34.142Z,14.30
2018-02-02T18:13:00.941Z,11.70
2018-02-02T18:15:27.464Z,11.77
2018-02-02T18:17:54.006Z,5.50
2018-02-02T18:20:20.270Z,7.60
2018-02-02T18:22:46.579Z,14.87
2018-02-02T18:25:12.890Z,11.57
2018-02-02T18:27:39.228Z,15.37
2018-02-02T18:30:05.566Z,16.87
2018-02-02T18:32:32.602Z,20.53
2018-02-02T18:34:59.646Z,30.37
2018-02-02T18:37:25.940Z,27.53
2018-02-02T18:39:52.240Z,32.47
2018-02-02T18:42:18.582Z,33.23
2018-02-02T18:44:45.636Z,15.83
2018-02-02T18:47:11.957Z,15.53
2018-02-02T18:49:38.990Z,19.17
2018-02-02T18:52:05.254Z,8.73
2018-02-02T18:54:31.591Z,10.87
2018-02-02T18:56:58.607Z,5.40
2018-02-02T18:59:24.905Z,6.37
2018-02-02T19:01:51.222Z,5.13
2018-02-02T19:04:17.510Z,6.07
2018-02-02T19:06:43.805Z,5.37
2018-02-02T19:09:10.094Z,7.00
2018-02-02T19:11:36.394Z,6.20
2018-02-02T19:14:02.698Z,5.47
2018-02-02T19:16:28.999Z,5.90
2018-02-02T19:18:55.293Z,6.33
2018-02-02T19:21:21.588Z,4.87
2018-02-02T19:23:48.543Z,7.73
2018-02-02T19:26:14.846Z,7.37
2018-02-02T19:28:41.594Z,6.93
2018-02-02T19:31:10.625Z,6.30
2018-02-02T19:33:36.904Z,7.17
2018-02-02T19:36:03.822Z,6.83
2018-02-02T19:38:31.355Z,7.23
2018-02-02T19:40:58.194Z,8.70
2018-02-02T19:43:24.814Z,5.90
2018-02-02T19:45:51.128Z,8.40
2018-02-02T19:48:17.470Z,8.53
2018-02-02T19:50:43.741Z,6.73
2018-02-02T19:53:10.038Z,10.23
2018-02-02T19:55:37.178Z,7.97
2018-02-02T19:58:04.272Z,9.50
2018-02-02T20:00:30.586Z,9.10
2018-02-02T20:02:56.893Z,13.33
2018-02-02T20:05:23.211Z,9.37
2018-02-02T20:07:49.509Z,8.57
2018-02-02T20:10:15.783Z,9.90
2018-02-02T20:12:42.827Z,8.67
2018-02-02T20:15:09.126Z,7.93
2018-02-02T20:17:35.413Z,6.93
2018-02-02T20:20:01.735Z,9.13
2018-02-02T20:22:28.019Z,13.20
2018-02-02T20:24:54.285Z,8.30
2018-02-02T20:27:21.381Z,11.40
2018-02-02T20:29:47.699Z,11.60
2018-02-02T20:32:13.979Z,11.10
2018-02-02T20:34:40.270Z,11.70
2018-02-02T20:37:07.291Z,8.23
2018-02-02T20:39:33.580Z,8.47
2018-02-02T20:41:59.879Z,9.73
2018-02-02T20:44:26.222Z,8.63
2018-02-02T20:46:52.494Z,10.87
2018-02-02T20:49:18.805Z,11.73
2018-02-02T20:51:45.095Z,7.93
2018-02-02T20:54:12.158Z,12.20
2018-02-02T20:56:38.478Z,9.80
2018-02-02T20:59:04.815Z,7.77
2018-02-02T21:01:31.171Z,8.37
2018-02-02T21:03:57.450Z,9.00
2018-02-02T21:06:23.790Z,8.23
2018-02-02T21:08:50.049Z,11.67
2018-02-02T21:11:16.323Z,7.63
2018-02-02T21:13:42.621Z,7.53
2018-02-02T21:16:08.909Z,10.60
2018-02-02T21:18:35.194Z,9.60
2018-02-02T21:21:02.299Z,13.17
2018-02-02T21:23:28.590Z,12.23
2018-02-02T21:25:54.880Z,14.97
2018-02-02T21:28:21.150Z,10.90
2018-02-02T21:30:47.462Z,11.10
2018-02-02T21:33:13.750Z,9.83
2018-02-02T21:35:40.028Z,11.97
2018-02-02T21:38:06.319Z,9.37
2018-02-02T21:40:32.591Z,13.73
2018-02-02T21:42:58.878Z,13.10
2018-02-02T21:45:25.294Z,12.67
2018-02-02T21:47:51.595Z,15.37
2018-02-02T21:50:17.882Z,10.70
2018-02-02T21:52:44.188Z,11.27
2018-02-02T21:55:10.498Z,10.13
2018-02-02T21:57:36.820Z,10.53
2018-02-02T22:00:03.130Z,10.20
2018-02-02T22:02:29.430Z,13.50
2018-02-02T22:04:55.690Z,9.37
2018-02-02T22:07:21.988Z,10.47
2018-02-02T22:09:48.251Z,11.23
2018-02-02T22:12:14.506Z,9.27
2018-02-02T22:14:40.799Z,10.77
2018-02-02T22:17:07.075Z,9.57
2018-02-02T22:19:34.108Z,10.13
2018-02-02T22:22:01.162Z,9.73
2018-02-02T22:24:27.430Z,7.73
2018-02-02T22:26:53.719Z,11.40
2018-02-02T22:29:19.985Z,8.53
2018-02-02T22:31:47.034Z,8.73
2018-02-02T22:34:13.328Z,8.73
2018-02-02T22:36:39.603Z,8.00
2018-02-02T22:39:05.978Z,8.17
2018-02-02T22:41:32.218Z,9.33
2018-02-02T22:43:58.544Z,7.87
2018-02-02T22:46:24.838Z,7.50
2018-02-02T22:48:51.112Z,11.67
2018-02-02T22:51:17.433Z,7.80
2018-02-02T22:53:43.709Z,9.77
2018-02-02T22:56:10.022Z,13.47
2018-02-02T22:58:36.335Z,13.77
2018-02-02T23:01:02.612Z,13.43
2018-02-02T23:03:28.991Z,10.13
2018-02-02T23:05:55.266Z,6.27
2018-02-02T23:08:21.583Z,7.13
2018-02-02T23:10:47.879Z,7.13
2018-02-02T23:13:14.903Z,11.40
2018-02-02T23:15:41.974Z,7.63
2018-02-02T23:18:08.246Z,6.93
2018-02-02T23:20:35.290Z,13.83
2018-02-02T23:23:01.585Z,9.47
2018-02-02T23:25:27.871Z,7.50
2018-02-02T23:27:54.219Z,6.63
2018-02-02T23:30:21.241Z,6.97
2018-02-02T23:32:47.553Z,6.53
2018-02-02T23:35:13.838Z,7.73
2018-02-02T23:37:40.195Z,6.50
2018-02-02T23:40:07.561Z,7.60
2018-02-02T23:42:33.855Z,6.83
2018-02-02T23:45:00.302Z,6.40
2018-02-02T23:47:26.580Z,8.27
2018-02-02T23:49:52.997Z,8.67
2018-02-02T23:52:20.030Z,6.43
2018-02-02T23:54:46.346Z,5.87
2018-02-02T23:57:13.732Z,5.63
2018-02-02T23:59:40.056Z,6.63
